createdAt,value
2017-08-11T00:00:54.480Z,16.10
2017-08-11T00:03:21.916Z,16.10
2017-08-11T00:05:49.823Z,16.10
2017-08-11T00:08:17.380Z,16.10
2017-08-11T00:10:44.796Z,16.00
2017-08-11T00:13:12.996Z,15.90
2017-08-11T00:15:41.198Z,15.90
2017-08-11T00:18:08.636Z,16.00
2017-08-11T00:20:36.068Z,16.00
2017-08-11T00:23:03.496Z,15.90
2017-08-11T00:25:30.932Z,15.90
2017-08-11T00:27:58.361Z,15.90
2017-08-11T00:30:25.800Z,15.90
2017-08-11T00:32:54.006Z,15.90
2017-08-11T00:35:21.432Z,15.90
2017-08-11T00:37:49.624Z,15.80
2017-08-11T00:40:17.057Z,15.70
2017-08-11T00:42:45.249Z,15.80
2017-08-11T00:45:13.300Z,15.70
2017-08-11T00:47:40.852Z,15.70
2017-08-11T00:50:09.062Z,15.80
2017-08-11T00:52:36.489Z,15.80
2017-08-11T00:55:03.920Z,15.70
2017-08-11T00:57:31.360Z,15.80
2017-08-11T00:59:58.787Z,15.80
2017-08-11T01:02:26.233Z,15.80
2017-08-11T01:04:54.423Z,15.80
2017-08-11T01:07:21.856Z,15.70
2017-08-11T01:09:50.056Z,15.80
2017-08-11T01:12:17.487Z,15.80
2017-08-11T01:14:45.685Z,15.80
2017-08-11T01:17:13.133Z,15.70
2017-08-11T01:19:40.561Z,15.70
2017-08-11T01:22:08.769Z,15.80
2017-08-11T01:24:36.205Z,15.80
2017-08-11T01:27:04.405Z,15.80
2017-08-11T01:29:31.832Z,15.80
2017-08-11T01:32:00.038Z,15.80
2017-08-11T01:34:27.463Z,15.80
2017-08-11T01:36:55.668Z,15.90
2017-08-11T01:39:23.105Z,15.80
2017-08-11T01:41:51.317Z,15.90
2017-08-11T01:44:18.752Z,15.90
2017-08-11T01:46:47.877Z,15.90
2017-08-11T01:49:15.384Z,15.90
2017-08-11T01:51:43.620Z,15.80
2017-08-11T01:54:11.057Z,15.80
2017-08-11T01:56:38.497Z,15.80
2017-08-11T01:59:05.925Z,15.80
2017-08-11T02:01:34.128Z,15.90
2017-08-11T02:04:01.565Z,15.80
2017-08-11T02:06:29.772Z,15.80
2017-08-11T02:08:57.210Z,15.80
2017-08-11T02:11:24.640Z,15.90
2017-08-11T02:13:52.853Z,15.90
2017-08-11T02:16:21.006Z,15.90
2017-08-11T02:18:48.520Z,15.90
2017-08-11T02:21:15.953Z,15.90
2017-08-11T02:23:44.033Z,15.90
2017-08-11T02:26:11.469Z,15.90
2017-08-11T02:28:38.909Z,15.90
2017-08-11T02:31:06.341Z,15.90
2017-08-11T02:33:33.781Z,15.90
2017-08-11T02:36:01.208Z,15.90
2017-08-11T02:38:28.660Z,15.90
2017-08-11T02:40:56.840Z,15.90
2017-08-11T02:43:25.112Z,15.90
2017-08-11T02:45:52.541Z,15.90
2017-08-11T02:48:20.749Z,15.90
2017-08-11T02:50:48.177Z,15.90
2017-08-11T02:53:15.618Z,15.90
2017-08-11T02:55:43.816Z,15.90
2017-08-11T02:58:11.312Z,15.90
2017-08-11T03:00:38.752Z,15.80
2017-08-11T03:03:06.189Z,15.80
2017-08-11T03:05:33.631Z,15.80
2017-08-11T03:08:01.875Z,15.50
2017-08-11T03:10:29.319Z,15.50
2017-08-11T03:12:56.749Z,15.60
2017-08-11T03:15:24.181Z,15.70
2017-08-11T03:17:51.621Z,15.70
2017-08-11T03:20:19.830Z,15.70
2017-08-11T03:22:47.261Z,15.70
2017-08-11T03:25:15.473Z,15.80
2017-08-11T03:27:42.900Z,15.70
2017-08-11T03:30:10.345Z,15.70
2017-08-11T03:32:38.549Z,15.80
2017-08-11T03:35:05.985Z,15.80
2017-08-11T03:37:33.412Z,15.80
2017-08-11T03:40:00.848Z,15.90
2017-08-11T03:42:28.286Z,15.80
2017-08-11T03:44:55.734Z,15.90
2017-08-11T03:47:23.169Z,15.90
2017-08-11T03:49:50.617Z,15.90
2017-08-11T03:52:18.815Z,15.90
2017-08-11T03:54:46.261Z,15.90
2017-08-11T03:57:13.688Z,15.90
2017-08-11T03:59:41.132Z,15.90
2017-08-11T04:02:08.562Z,15.90
2017-08-11T04:04:35.996Z,15.90
2017-08-11T04:07:03.438Z,15.90
2017-08-11T04:09:31.445Z,15.90
2017-08-11T04:11:58.881Z,15.90
2017-08-11T04:14:26.312Z,15.90
2017-08-11T04:16:54.530Z,15.90
2017-08-11T04:19:21.960Z,15.90
2017-08-11T04:21:49.402Z,15.90
2017-08-11T04:24:17.605Z,16.00
2017-08-11T04:26:45.044Z,16.00
2017-08-11T04:29:12.482Z,15.90
2017-08-11T04:31:40.689Z,16.00
2017-08-11T04:34:08.124Z,16.00
2017-08-11T04:36:36.328Z,16.00
2017-08-11T04:39:03.785Z,16.00
2017-08-11T04:41:31.225Z,16.00
2017-08-11T04:43:58.655Z,16.00
2017-08-11T04:46:26.866Z,16.00
2017-08-11T04:48:54.296Z,16.00
2017-08-11T04:51:22.501Z,15.90
2017-08-11T04:53:49.924Z,15.90
2017-08-11T04:56:18.124Z,15.90
2017-08-11T04:58:45.561Z,15.90
2017-08-11T05:01:13.762Z,15.90
2017-08-11T05:03:41.197Z,15.90
2017-08-11T05:06:09.413Z,15.80
2017-08-11T05:08:36.853Z,15.70
2017-08-11T05:11:04.293Z,15.80
2017-08-11T05:13:32.497Z,15.80
2017-08-11T05:15:59.923Z,15.80
2017-08-11T05:18:27.364Z,15.80
2017-08-11T05:20:55.569Z,15.80
2017-08-11T05:23:23.000Z,15.80
2017-08-11T05:25:51.201Z,15.80
2017-08-11T05:28:18.649Z,15.80
2017-08-11T05:30:46.188Z,15.90
2017-08-11T05:33:14.397Z,15.90
2017-08-11T05:35:41.816Z,15.80
2017-08-11T05:38:10.020Z,15.90
2017-08-11T05:40:37.449Z,15.90
2017-08-11T05:43:05.664Z,15.90
2017-08-11T05:45:33.176Z,15.90
2017-08-11T05:48:01.388Z,16.00
2017-08-11T05:50:28.812Z,16.00
2017-08-11T05:52:57.021Z,16.10
2017-08-11T05:55:24.461Z,16.00
2017-08-11T05:57:51.898Z,16.10
2017-08-11T06:00:20.104Z,16.00
2017-08-11T06:02:47.532Z,16.00
2017-08-11T06:05:15.732Z,16.00
2017-08-11T06:07:43.194Z,16.00
2017-08-11T06:10:10.616Z,16.00
2017-08-11T06:12:38.889Z,16.00
2017-08-11T06:15:06.356Z,16.00
2017-08-11T06:17:34.556Z,16.10
2017-08-11T06:20:01.993Z,16.10
2017-08-11T06:22:31.145Z,16.10
2017-08-11T06:24:58.584Z,16.10
2017-08-11T06:27:27.016Z,16.10
2017-08-11T06:29:56.319Z,16.20
2017-08-11T06:32:24.932Z,16.20
2017-08-11T06:34:52.378Z,16.20
2017-08-11T06:37:20.582Z,16.20
2017-08-11T06:39:48.037Z,16.20
2017-08-11T06:42:15.465Z,16.20
2017-08-11T06:44:42.901Z,16.20
2017-08-11T06:47:11.103Z,16.20
2017-08-11T06:49:38.541Z,16.20
2017-08-11T06:52:06.808Z,16.30
2017-08-11T06:54:35.012Z,16.20
2017-08-11T06:57:02.504Z,16.30
2017-08-11T06:59:29.948Z,16.30
2017-08-11T07:01:57.580Z,16.30
2017-08-11T07:04:25.024Z,16.20
2017-08-11T07:06:53.220Z,16.30
2017-08-11T07:09:20.705Z,16.30
2017-08-11T07:11:48.139Z,16.30
2017-08-11T07:14:15.569Z,16.30
2017-08-11T07:16:43.768Z,16.40
2017-08-11T07:19:11.228Z,16.30
2017-08-11T07:21:38.676Z,16.40
2017-08-11T07:24:06.105Z,16.50
2017-08-11T07:26:34.393Z,16.50
2017-08-11T07:29:02.589Z,16.60
2017-08-11T07:31:30.641Z,16.60
2017-08-11T07:33:58.839Z,16.70
2017-08-11T07:36:27.550Z,16.70
2017-08-11T07:38:55.051Z,16.80
2017-08-11T07:41:24.269Z,16.90
2017-08-11T07:43:53.421Z,16.90
2017-08-11T07:46:20.848Z,16.90
2017-08-11T07:48:48.286Z,17.00
2017-08-11T07:51:15.728Z,17.00
2017-08-11T07:53:43.936Z,17.00
2017-08-11T07:56:11.378Z,17.00
2017-08-11T07:58:38.805Z,17.00
2017-08-11T08:01:07.013Z,17.10
2017-08-11T08:03:34.513Z,17.00
2017-08-11T08:06:01.940Z,17.10
2017-08-11T08:08:29.372Z,17.10
2017-08-11T08:10:56.808Z,17.10
2017-08-11T08:13:25.057Z,17.10
2017-08-11T08:15:52.496Z,17.10
2017-08-11T08:18:19.925Z,17.10
2017-08-11T08:20:47.360Z,17.10
2017-08-11T08:23:15.568Z,17.20
2017-08-11T08:25:43.001Z,17.20
2017-08-11T08:28:10.436Z,17.20
2017-08-11T08:30:38.456Z,17.30
2017-08-11T08:33:05.902Z,17.30
2017-08-11T08:35:33.338Z,17.30
2017-08-11T08:38:00.780Z,17.20
2017-08-11T08:40:28.984Z,17.30
2017-08-11T08:42:56.421Z,17.30
2017-08-11T08:45:24.627Z,17.30
2017-08-11T08:47:52.061Z,17.30
2017-08-11T08:50:19.492Z,17.30
2017-08-11T08:52:47.701Z,17.40
2017-08-11T08:55:15.138Z,17.30
2017-08-11T08:57:43.341Z,17.40
2017-08-11T09:00:10.777Z,17.40
2017-08-11T09:02:38.271Z,17.40
2017-08-11T09:05:05.681Z,17.40
2017-08-11T09:07:33.900Z,17.50
2017-08-11T09:10:01.337Z,17.50
2017-08-11T09:12:28.977Z,17.50
2017-08-11T09:14:57.225Z,17.50
2017-08-11T09:17:24.680Z,17.50
2017-08-11T09:19:52.108Z,17.60
2017-08-11T09:22:19.660Z,17.60
2017-08-11T09:24:59.125Z,17.60
2017-08-11T09:27:38.549Z,17.60
2017-08-11T09:30:17.952Z,17.70
2017-08-11T09:32:57.428Z,17.80
2017-08-11T09:35:45.504Z,17.80
2017-08-11T09:38:13.712Z,17.90
2017-08-11T09:40:41.154Z,17.90
2017-08-11T09:43:09.365Z,17.90
2017-08-11T09:45:36.809Z,17.90
2017-08-11T09:48:04.241Z,17.90
2017-08-11T09:50:31.705Z,17.90
2017-08-11T09:52:59.676Z,17.90
2017-08-11T09:55:27.877Z,18.00
2017-08-11T09:57:55.305Z,18.00
2017-08-11T10:00:22.752Z,18.00
2017-08-11T10:02:50.948Z,18.00
2017-08-11T10:05:18.389Z,18.00
2017-08-11T10:07:45.836Z,18.00
2017-08-11T10:10:14.044Z,17.90
2017-08-11T10:12:41.468Z,17.90
2017-08-11T10:15:09.673Z,17.80
2017-08-11T10:17:37.100Z,17.80
2017-08-11T10:20:05.297Z,17.90
2017-08-11T10:22:32.729Z,17.90
2017-08-11T10:25:00.924Z,17.90
2017-08-11T10:27:28.348Z,17.90
2017-08-11T10:29:55.801Z,18.00
2017-08-11T10:32:23.225Z,18.00
2017-08-11T10:34:50.654Z,17.90
2017-08-11T10:37:18.089Z,17.90
2017-08-11T10:39:45.515Z,17.80
2017-08-11T10:42:12.949Z,17.70
2017-08-11T10:44:40.378Z,17.80
2017-08-11T10:47:09.787Z,17.70
2017-08-11T10:49:37.425Z,17.70
2017-08-11T10:52:05.684Z,17.60
2017-08-11T10:54:33.113Z,17.60
2017-08-11T10:57:00.941Z,17.60
2017-08-11T10:59:28.356Z,17.60
2017-08-11T11:01:55.789Z,17.50
2017-08-11T11:04:23.212Z,17.50
2017-08-11T11:06:50.643Z,17.50
2017-08-11T11:09:18.847Z,17.40
2017-08-11T11:11:46.280Z,17.40
2017-08-11T11:14:14.472Z,17.40
2017-08-11T11:16:41.909Z,17.40
2017-08-11T11:19:10.108Z,17.60
2017-08-11T11:21:37.545Z,17.60
2017-08-11T11:24:05.744Z,17.70
2017-08-11T11:26:33.170Z,17.70
2017-08-11T11:29:01.369Z,18.00
2017-08-11T11:31:28.793Z,18.00
2017-08-11T11:33:56.228Z,18.00
2017-08-11T11:36:23.665Z,18.10
2017-08-11T11:38:51.096Z,18.20
2017-08-11T11:41:18.541Z,18.20
2017-08-11T11:43:46.728Z,18.30
2017-08-11T11:46:14.152Z,18.30
2017-08-11T11:48:42.357Z,18.40
2017-08-11T11:51:09.784Z,18.40
2017-08-11T11:53:37.985Z,18.50
2017-08-11T11:56:05.419Z,18.50
2017-08-11T11:58:33.616Z,18.50
2017-08-11T12:01:01.041Z,18.40
2017-08-11T12:03:29.241Z,18.50
2017-08-11T12:05:56.709Z,18.40
2017-08-11T12:08:24.140Z,18.40
2017-08-11T12:10:52.343Z,18.30
2017-08-11T12:13:19.778Z,18.30
2017-08-11T12:15:47.972Z,18.30
2017-08-11T12:18:15.400Z,18.30
2017-08-11T12:20:43.597Z,18.30
2017-08-11T12:23:11.025Z,18.20
2017-08-11T12:25:39.230Z,18.30
2017-08-11T12:28:06.652Z,18.20
2017-08-11T12:30:34.865Z,18.20
2017-08-11T12:33:02.297Z,18.20
2017-08-11T12:35:30.498Z,18.20
2017-08-11T12:37:57.921Z,18.10
2017-08-11T12:40:25.349Z,18.10
2017-08-11T12:42:52.779Z,18.10
2017-08-11T12:45:20.218Z,18.10
2017-08-11T12:47:47.645Z,18.10
2017-08-11T12:50:15.864Z,18.00
2017-08-11T12:52:43.284Z,18.00
2017-08-11T12:55:11.481Z,18.00
2017-08-11T12:57:38.909Z,18.00
2017-08-11T13:00:07.109Z,17.90
2017-08-11T13:02:34.537Z,17.90
2017-08-11T13:05:02.732Z,17.90
2017-08-11T13:07:30.163Z,17.90
2017-08-11T13:09:57.597Z,17.80
2017-08-11T13:12:25.208Z,17.80
2017-08-11T13:14:52.657Z,17.80
2017-08-11T13:17:20.852Z,17.90
2017-08-11T13:19:48.284Z,17.90
2017-08-11T13:22:16.477Z,17.80
2017-08-11T13:24:43.908Z,17.80
2017-08-11T13:27:12.113Z,17.90
2017-08-11T13:29:39.548Z,17.90
2017-08-11T13:32:07.740Z,17.90
2017-08-11T13:34:35.170Z,17.90
2017-08-11T13:37:02.601Z,17.90
2017-08-11T13:39:30.016Z,17.90
2017-08-11T13:41:59.414Z,17.90
2017-08-11T13:44:27.589Z,17.90
2017-08-11T13:46:55.020Z,17.90
2017-08-11T13:49:23.220Z,17.90
2017-08-11T13:51:50.653Z,17.90
2017-08-11T13:54:18.856Z,17.90
2017-08-11T13:56:46.376Z,17.90
2017-08-11T13:59:14.574Z,17.90
2017-08-11T14:01:42.014Z,17.90
2017-08-11T14:04:09.461Z,17.90
2017-08-11T14:06:37.660Z,17.80
2017-08-11T14:09:05.093Z,17.80
2017-08-11T14:11:33.288Z,17.80
2017-08-11T14:14:00.722Z,17.80
2017-08-11T14:16:28.153Z,17.80
2017-08-11T14:18:55.594Z,17.80
2017-08-11T14:21:23.096Z,17.80
2017-08-11T14:23:57.016Z,17.80
2017-08-11T14:26:24.448Z,17.70
2017-08-11T14:28:51.892Z,17.80
2017-08-11T14:31:19.329Z,17.70
2017-08-11T14:33:46.761Z,17.70
2017-08-11T14:36:14.290Z,17.70
2017-08-11T14:38:42.490Z,17.70
2017-08-11T14:41:09.917Z,17.70
2017-08-11T14:43:37.352Z,17.70
2017-08-11T14:46:04.784Z,17.70
2017-08-11T14:48:32.213Z,17.70
2017-08-11T14:50:59.649Z,17.70
2017-08-11T14:53:27.852Z,17.70
2017-08-11T14:55:55.284Z,17.60
2017-08-11T14:58:23.479Z,17.60
2017-08-11T15:00:50.912Z,17.60
2017-08-11T15:03:19.112Z,17.50
2017-08-11T15:05:46.552Z,17.50
2017-08-11T15:08:14.752Z,17.60
2017-08-11T15:10:42.176Z,17.50
2017-08-11T15:13:10.464Z,17.60
2017-08-11T15:15:38.658Z,17.60
2017-08-11T15:18:06.089Z,17.60
2017-08-11T15:20:34.453Z,17.60
2017-08-11T15:23:01.921Z,17.60
2017-08-11T15:25:30.129Z,17.50
2017-08-11T15:27:57.561Z,17.50
2017-08-11T15:30:25.054Z,17.50
2017-08-11T15:32:52.460Z,17.50
2017-08-11T15:35:20.665Z,17.50
2017-08-11T15:37:48.117Z,17.50
2017-08-11T15:40:16.300Z,17.40
2017-08-11T15:42:43.727Z,17.40
2017-08-11T15:45:11.929Z,17.40
2017-08-11T15:47:39.361Z,17.40
2017-08-11T15:50:06.806Z,17.30
2017-08-11T15:52:34.232Z,17.40
2017-08-11T15:55:01.679Z,17.40
2017-08-11T15:57:29.100Z,17.40
2017-08-11T15:59:56.536Z,17.40
2017-08-11T16:02:24.741Z,17.30
2017-08-11T16:04:52.213Z,17.30
2017-08-11T16:07:19.640Z,17.30
2017-08-11T16:09:47.077Z,17.30
2017-08-11T16:12:14.507Z,17.30
2017-08-11T16:14:41.948Z,17.30
2017-08-11T16:17:09.381Z,17.30
2017-08-11T16:19:36.820Z,17.30
2017-08-11T16:22:05.012Z,17.20
2017-08-11T16:24:32.457Z,17.20
2017-08-11T16:27:00.651Z,17.20
2017-08-11T16:29:28.125Z,17.20
2017-08-11T16:31:55.549Z,17.20
2017-08-11T16:34:22.985Z,17.10
2017-08-11T16:36:51.193Z,16.90
2017-08-11T16:39:18.634Z,16.90
2017-08-11T16:41:46.842Z,16.90
2017-08-11T16:44:15.276Z,16.90
2017-08-11T16:46:43.485Z,16.90
2017-08-11T16:49:10.908Z,16.90
2017-08-11T16:51:39.108Z,17.00
2017-08-11T16:54:06.545Z,16.90
2017-08-11T16:56:34.768Z,17.00
2017-08-11T16:59:02.202Z,16.90
2017-08-11T17:01:29.643Z,17.00
2017-08-11T17:03:57.078Z,17.00
2017-08-11T17:06:24.513Z,17.00
2017-08-11T17:08:51.950Z,17.00
2017-08-11T17:11:19.392Z,17.10
2017-08-11T17:13:46.825Z,17.10
2017-08-11T17:16:15.828Z,17.00
2017-08-11T17:18:43.261Z,17.00
2017-08-11T17:21:11.465Z,17.00
2017-08-11T17:23:38.892Z,16.90
2017-08-11T17:26:07.097Z,17.00
2017-08-11T17:28:34.529Z,17.00
2017-08-11T17:31:02.757Z,16.90
2017-08-11T17:33:30.185Z,16.90
2017-08-11T17:35:57.614Z,16.90
2017-08-11T17:38:25.813Z,16.90
2017-08-11T17:40:53.261Z,16.90
2017-08-11T17:43:20.693Z,16.80
2017-08-11T17:45:48.905Z,16.80
2017-08-11T17:48:16.333Z,16.80
2017-08-11T17:50:43.780Z,16.80
2017-08-11T17:53:11.225Z,16.90
2017-08-11T17:55:38.647Z,16.90
2017-08-11T17:58:06.081Z,16.90
2017-08-11T18:00:33.521Z,16.90
2017-08-11T18:03:01.732Z,16.90
2017-08-11T18:05:29.174Z,16.80
2017-08-11T18:07:56.614Z,16.90
2017-08-11T18:10:24.809Z,16.80
2017-08-11T18:12:52.314Z,16.80
2017-08-11T18:15:19.748Z,16.80
2017-08-11T18:17:47.194Z,16.80
2017-08-11T18:22:38.496Z,16.80
2017-08-11T18:25:06.695Z,16.70
2017-08-11T18:27:34.137Z,16.70
2017-08-11T18:30:02.687Z,16.70
2017-08-11T18:32:30.109Z,16.70
2017-08-11T18:34:57.557Z,16.70
2017-08-11T18:37:25.089Z,16.70
2017-08-11T18:39:52.516Z,16.70
2017-08-11T18:42:20.738Z,16.60
2017-08-11T18:44:48.181Z,16.60
2017-08-11T18:47:15.737Z,16.60
2017-08-11T18:49:43.179Z,16.60
2017-08-11T18:52:11.386Z,16.50
2017-08-11T18:54:38.827Z,16.50
2017-08-11T18:57:06.249Z,16.50
2017-08-11T18:59:34.476Z,16.50
2017-08-11T19:02:01.913Z,16.40
2017-08-11T19:04:29.358Z,16.40
2017-08-11T19:06:57.587Z,16.40
2017-08-11T19:09:25.050Z,16.40
2017-08-11T19:11:52.536Z,16.40
2017-08-11T19:14:20.753Z,16.40
2017-08-11T19:16:48.194Z,16.40
2017-08-11T19:19:15.657Z,16.40
2017-08-11T19:21:43.090Z,16.40
2017-08-11T19:24:11.331Z,16.40
2017-08-11T19:26:38.760Z,16.40
2017-08-11T19:29:06.195Z,16.40
2017-08-11T19:31:33.637Z,16.40
2017-08-11T19:34:01.073Z,16.40
2017-08-11T19:36:28.531Z,16.40
2017-08-11T19:38:56.742Z,16.40
2017-08-11T19:41:24.176Z,16.40
2017-08-11T19:43:52.384Z,16.50
2017-08-11T19:46:19.826Z,16.50
2017-08-11T19:49:09.386Z,16.50
2017-08-11T19:51:37.597Z,16.40
2017-08-11T19:54:05.069Z,16.40
2017-08-11T19:56:32.527Z,16.40
2017-08-11T19:59:00.025Z,16.40
2017-08-11T20:01:28.253Z,16.40
2017-08-11T20:03:55.689Z,16.40
2017-08-11T20:06:23.137Z,16.40
2017-08-11T20:08:50.577Z,16.40
2017-08-11T20:11:18.877Z,16.40
2017-08-11T20:13:46.322Z,16.40
2017-08-11T20:16:13.752Z,16.40
2017-08-11T20:18:42.037Z,16.40
2017-08-11T20:21:09.469Z,16.40
2017-08-11T20:23:36.956Z,16.50
2017-08-11T20:26:05.209Z,16.30
2017-08-11T20:28:32.650Z,16.30
2017-08-11T20:31:00.086Z,16.30
2017-08-11T20:33:27.536Z,16.30
2017-08-11T20:35:54.969Z,16.30
2017-08-11T20:38:24.267Z,16.30
2017-08-11T20:40:52.457Z,16.30
2017-08-11T20:43:19.888Z,16.30
2017-08-11T20:45:48.188Z,16.30
2017-08-11T20:48:15.640Z,16.20
2017-08-11T20:50:43.083Z,16.20
2017-08-11T20:53:11.385Z,16.10
2017-08-11T20:55:38.842Z,16.00
2017-08-11T20:58:06.368Z,16.20
2017-08-11T21:00:34.582Z,16.10
2017-08-11T21:03:02.013Z,16.10
2017-08-11T21:05:29.458Z,16.10
2017-08-11T21:07:57.736Z,16.00
2017-08-11T21:10:25.164Z,16.00
2017-08-11T21:12:52.640Z,16.10
2017-08-11T21:15:20.076Z,16.00
2017-08-11T21:17:47.508Z,16.00
2017-08-11T21:20:15.020Z,16.00
2017-08-11T21:22:43.222Z,15.90
2017-08-11T21:25:10.657Z,15.90
2017-08-11T21:27:38.862Z,15.90
2017-08-11T21:30:06.301Z,15.90
2017-08-11T21:32:33.733Z,15.90
2017-08-11T21:35:01.178Z,15.90
2017-08-11T21:37:28.628Z,15.80
2017-08-11T21:39:56.061Z,15.80
2017-08-11T21:42:23.507Z,15.70
2017-08-11T21:44:50.945Z,15.70
2017-08-11T21:47:18.409Z,15.70
2017-08-11T21:49:45.841Z,15.70
2017-08-11T21:52:14.056Z,15.60
2017-08-11T21:54:41.488Z,15.60
2017-08-11T21:57:08.933Z,15.60
2017-08-11T21:59:36.368Z,15.70
2017-08-11T22:02:03.836Z,15.70
2017-08-11T22:04:32.041Z,15.70
2017-08-11T22:06:59.485Z,15.70
2017-08-11T22:09:26.920Z,15.70
2017-08-11T22:11:55.127Z,15.70
2017-08-11T22:14:22.557Z,15.70
2017-08-11T22:16:50.773Z,15.80
2017-08-11T22:19:18.212Z,15.70
2017-08-11T22:21:45.640Z,15.70
2017-08-11T22:24:13.849Z,15.70
2017-08-11T22:26:41.280Z,15.70
2017-08-11T22:29:09.492Z,15.60
2017-08-11T22:31:36.924Z,15.60
2017-08-11T22:34:04.369Z,15.60
2017-08-11T22:36:32.655Z,15.60
2017-08-11T22:39:00.852Z,15.60
2017-08-11T22:41:28.276Z,15.60
2017-08-11T22:43:56.482Z,15.60
2017-08-11T22:46:23.921Z,15.60
2017-08-11T22:48:51.359Z,15.60
2017-08-11T22:51:19.553Z,15.60
2017-08-11T22:53:47.138Z,15.60
2017-08-11T22:56:14.564Z,15.70
2017-08-11T22:58:42.005Z,15.60
2017-08-11T23:01:10.209Z,15.70
2017-08-11T23:03:37.646Z,15.70
2017-08-11T23:06:05.852Z,15.80
2017-08-11T23:08:33.277Z,15.80
2017-08-11T23:11:01.476Z,15.70
2017-08-11T23:13:28.910Z,15.70
2017-08-11T23:15:57.118Z,15.70
2017-08-11T23:18:24.539Z,15.70
2017-08-11T23:20:51.977Z,15.60
2017-08-11T23:23:20.189Z,15.60
2017-08-11T23:25:47.641Z,15.60
2017-08-11T23:28:15.843Z,15.60
2017-08-11T23:30:43.281Z,15.60
2017-08-11T23:33:10.713Z,15.60
2017-08-11T23:35:38.928Z,15.60
2017-08-11T23:38:06.365Z,15.70
2017-08-11T23:40:33.805Z,15.60
2017-08-11T23:43:02.000Z,15.50
2017-08-11T23:45:29.446Z,15.50
2017-08-11T23:47:56.877Z,15.60
2017-08-11T23:50:25.086Z,15.50
2017-08-11T23:52:52.525Z,15.50
2017-08-11T23:55:20.726Z,15.50
2017-08-11T23:57:48.165Z,15.50
